createdAt,value
2023-02-06T00:01:31.186Z,-0.08
2023-02-06T00:03:57.925Z,-0.04
2023-02-06T00:06:24.766Z,0.26
2023-02-06T00:08:51.825Z,0.63
2023-02-06T00:11:19.117Z,-0.07
2023-02-06T00:13:46.157Z,0.22
2023-02-06T00:16:25.467Z,0.36
2023-02-06T00:18:53.350Z,0.38
2023-02-06T00:21:22.112Z,0.52
2023-02-06T00:23:49.266Z,0.23
2023-02-06T00:26:16.314Z,0.17
2023-02-06T00:28:43.430Z,0.15
2023-02-06T00:31:11.037Z,0.52
2023-02-06T00:33:39.647Z,0.12
2023-02-06T00:36:06.984Z,-0.61
2023-02-06T00:38:34.102Z,-0.06
2023-02-06T00:41:00.930Z,-0.24
2023-02-06T00:43:29.675Z,-0.22
2023-02-06T00:45:57.680Z,-0.31
2023-02-06T00:48:25.492Z,-0.07
2023-02-06T00:50:53.780Z,0.00
2023-02-06T00:53:21.558Z,0.21
2023-02-06T00:55:48.289Z,-0.27
2023-02-06T00:58:15.234Z,0.10
2023-02-06T01:00:43.472Z,-0.17
2023-02-06T01:03:10.792Z,0.08
2023-02-06T01:05:37.805Z,0.40
2023-02-06T01:08:04.881Z,0.40
2023-02-06T01:10:32.457Z,0.29
2023-02-06T01:13:00.734Z,0.71
2023-02-06T01:15:27.989Z,0.61
2023-02-06T01:17:54.945Z,0.73
2023-02-06T01:20:23.080Z,0.05
2023-02-06T01:22:50.676Z,0.03
2023-02-06T01:25:17.526Z,0.58
2023-02-06T01:27:44.566Z,0.46
2023-02-06T01:30:11.916Z,0.58
2023-02-06T01:32:40.078Z,0.79
2023-02-06T01:35:08.856Z,0.40
2023-02-06T01:37:36.788Z,0.73
2023-02-06T01:40:05.751Z,0.63
2023-02-06T01:42:37.652Z,0.99
2023-02-06T01:45:17.035Z,0.82
2023-02-06T01:47:43.882Z,0.82
2023-02-06T01:50:11.622Z,0.82
2023-02-06T01:52:38.579Z,0.91
2023-02-06T01:55:06.740Z,0.81
2023-02-06T01:57:34.906Z,0.75
2023-02-06T02:00:07.089Z,0.89
2023-02-06T02:02:43.687Z,0.63
2023-02-06T02:05:12.482Z,0.75
2023-02-06T02:07:48.098Z,0.87
2023-02-06T02:10:15.360Z,0.65
2023-02-06T02:12:42.041Z,0.95
2023-02-06T02:15:09.310Z,0.70
2023-02-06T02:17:55.605Z,0.56
2023-02-06T02:20:37.102Z,0.99
2023-02-06T02:23:08.198Z,1.01
2023-02-06T02:25:50.585Z,1.16
2023-02-06T02:28:29.680Z,1.20
2023-02-06T02:31:08.382Z,1.35
2023-02-06T02:34:01.102Z,1.11
2023-02-06T02:36:37.509Z,1.20
2023-02-06T02:39:40.373Z,1.35
2023-02-06T02:42:27.693Z,1.22
2023-02-06T02:45:12.908Z,1.33
2023-02-06T02:47:47.636Z,1.04
2023-02-06T02:50:16.856Z,1.30
2023-02-06T02:52:44.991Z,1.36
2023-02-06T02:55:22.455Z,1.36
2023-02-06T02:57:59.780Z,1.41
2023-02-06T03:00:27.438Z,1.48
2023-02-06T03:02:57.493Z,1.44
2023-02-06T03:05:26.179Z,1.47
2023-02-06T03:08:10.988Z,1.51
2023-02-06T03:10:47.525Z,1.47
2023-02-06T03:13:32.042Z,1.50
2023-02-06T03:16:18.108Z,1.50
2023-02-06T03:18:56.494Z,1.53
2023-02-06T03:21:25.209Z,1.59
2023-02-06T03:23:57.909Z,1.54
2023-02-06T03:26:27.621Z,1.60
2023-02-06T03:29:00.337Z,1.40
2023-02-06T03:31:40.002Z,1.49
2023-02-06T03:34:15.713Z,1.48
2023-02-06T03:36:43.866Z,1.33
2023-02-06T03:39:11.403Z,1.47
2023-02-06T03:41:40.600Z,1.68
2023-02-06T03:44:12.153Z,1.67
2023-02-06T03:46:41.856Z,1.80
2023-02-06T03:49:12.932Z,1.67
2023-02-06T03:51:53.076Z,1.57
2023-02-06T03:54:22.842Z,1.67
2023-02-06T03:56:55.162Z,1.63
2023-02-06T03:59:23.484Z,1.44
2023-02-06T04:01:57.355Z,1.21
2023-02-06T04:04:29.535Z,1.40
2023-02-06T04:07:07.312Z,1.50
2023-02-06T04:09:34.164Z,1.58
2023-02-06T04:12:00.862Z,1.36
2023-02-06T04:14:27.677Z,1.34
2023-02-06T04:16:54.538Z,1.16
2023-02-06T04:19:21.305Z,1.26
2023-02-06T04:21:48.243Z,1.36
2023-02-06T04:24:15.211Z,1.48
2023-02-06T04:26:41.886Z,1.41
2023-02-06T04:29:08.802Z,1.43
2023-02-06T04:31:35.606Z,1.22
2023-02-06T04:34:02.436Z,1.03
2023-02-06T04:36:29.193Z,0.73
2023-02-06T04:38:56.143Z,0.73
2023-02-06T04:41:22.855Z,1.10
2023-02-06T04:43:49.571Z,1.25
2023-02-06T04:46:16.433Z,1.35
2023-02-06T04:48:43.200Z,1.26
2023-02-06T04:51:10.145Z,1.02
2023-02-06T04:53:36.923Z,1.21
2023-02-06T04:56:08.975Z,0.83
2023-02-06T04:58:38.563Z,0.81
2023-02-06T05:01:05.908Z,0.41
2023-02-06T05:03:33.253Z,0.52
2023-02-06T05:06:02.240Z,0.69
2023-02-06T05:08:29.682Z,0.37
2023-02-06T05:10:57.226Z,0.61
2023-02-06T05:13:24.044Z,0.74
2023-02-06T05:15:51.649Z,0.77
2023-02-06T05:18:18.667Z,0.58
2023-02-06T05:20:46.265Z,0.71
2023-02-06T05:23:12.984Z,0.83
2023-02-06T05:25:42.119Z,0.92
2023-02-06T05:28:09.209Z,0.78
2023-02-06T05:30:36.534Z,0.63
2023-02-06T05:33:04.443Z,0.69
2023-02-06T05:35:31.182Z,0.55
2023-02-06T05:37:58.276Z,0.49
2023-02-06T05:40:25.139Z,0.66
2023-02-06T05:42:51.976Z,0.39
2023-02-06T05:45:18.843Z,0.21
2023-02-06T05:47:46.094Z,0.34
2023-02-06T05:50:12.803Z,0.41
2023-02-06T05:52:39.620Z,0.45
2023-02-06T05:55:07.229Z,0.52
2023-02-06T05:57:34.699Z,0.57
2023-02-06T06:00:01.489Z,0.48
2023-02-06T06:02:38.504Z,0.68
2023-02-06T06:05:06.102Z,0.67
2023-02-06T06:07:32.915Z,0.20
2023-02-06T06:09:59.799Z,0.49
2023-02-06T06:12:26.556Z,0.87
2023-02-06T06:14:53.562Z,0.73
2023-02-06T06:17:20.858Z,0.94
2023-02-06T06:19:47.579Z,0.70
2023-02-06T06:22:14.341Z,0.48
2023-02-06T06:24:42.226Z,0.40
2023-02-06T06:27:10.776Z,0.56
2023-02-06T06:29:37.683Z,0.63
2023-02-06T06:32:05.346Z,0.60
2023-02-06T06:34:32.120Z,0.75
2023-02-06T06:36:59.045Z,1.00
2023-02-06T06:39:25.893Z,0.93
2023-02-06T06:41:52.670Z,1.26
2023-02-06T06:44:19.409Z,0.98
2023-02-06T06:46:46.333Z,1.25
2023-02-06T06:49:13.123Z,1.00
2023-02-06T06:51:39.870Z,1.07
2023-02-06T06:54:06.637Z,1.04
2023-02-06T06:56:33.587Z,0.72
2023-02-06T06:59:00.286Z,0.94
2023-02-06T07:01:27.204Z,0.91
2023-02-06T07:03:54.004Z,0.89
2023-02-06T07:06:20.944Z,1.07
2023-02-06T07:08:47.643Z,1.31
2023-02-06T07:11:15.515Z,1.15
2023-02-06T07:13:43.032Z,0.97
2023-02-06T07:16:10.617Z,0.88
2023-02-06T07:18:39.839Z,0.77
2023-02-06T07:21:08.718Z,0.98
2023-02-06T07:23:38.647Z,1.38
2023-02-06T07:26:05.781Z,1.36
2023-02-06T07:28:33.315Z,1.23
2023-02-06T07:31:01.565Z,1.56
2023-02-06T07:33:28.733Z,1.28
2023-02-06T07:35:55.480Z,1.34
2023-02-06T07:38:22.536Z,1.71
2023-02-06T07:40:49.348Z,1.29
2023-02-06T07:43:16.538Z,1.39
2023-02-06T07:45:43.422Z,1.50
2023-02-06T07:48:10.446Z,1.60
2023-02-06T07:50:37.530Z,1.06
2023-02-06T07:53:04.407Z,1.14
2023-02-06T07:55:31.158Z,1.38
2023-02-06T07:57:58.072Z,1.34
2023-02-06T08:00:24.849Z,1.56
2023-02-06T08:02:51.703Z,1.54
2023-02-06T08:05:18.600Z,1.22
2023-02-06T08:07:45.551Z,1.54
2023-02-06T08:10:12.349Z,1.88
2023-02-06T08:12:39.146Z,1.87
2023-02-06T08:15:06.309Z,1.91
2023-02-06T08:17:33.113Z,2.50
2023-02-06T08:20:00.247Z,2.59
2023-02-06T08:22:28.936Z,2.81
2023-02-06T08:24:55.679Z,2.47
2023-02-06T08:27:22.412Z,2.63
2023-02-06T08:29:49.290Z,2.98
2023-02-06T08:32:15.908Z,3.05
2023-02-06T08:34:42.673Z,3.55
2023-02-06T08:37:09.422Z,3.77
2023-02-06T08:39:36.511Z,3.14
2023-02-06T08:42:03.236Z,3.23
2023-02-06T08:44:30.260Z,3.51
2023-02-06T08:47:09.169Z,3.79
2023-02-06T08:49:36.852Z,3.36
2023-02-06T08:52:03.700Z,3.63
2023-02-06T08:54:31.135Z,3.91
2023-02-06T08:57:01.133Z,4.06
2023-02-06T08:59:32.233Z,4.10
2023-02-06T09:01:59.200Z,3.95
2023-02-06T09:04:31.634Z,3.43
2023-02-06T09:06:58.646Z,3.46
2023-02-06T09:09:25.368Z,3.65
2023-02-06T09:11:53.387Z,3.79
2023-02-06T09:14:20.614Z,4.16
2023-02-06T09:16:47.642Z,4.48
2023-02-06T09:19:14.789Z,4.57
2023-02-06T09:21:41.740Z,4.53
2023-02-06T09:24:09.634Z,4.36
2023-02-06T09:26:53.402Z,4.25
2023-02-06T09:29:24.226Z,4.00
2023-02-06T09:31:50.987Z,3.31
2023-02-06T09:34:17.855Z,3.62
2023-02-06T09:36:44.842Z,3.84
2023-02-06T09:39:11.750Z,4.50
2023-02-06T09:41:49.182Z,4.63
2023-02-06T09:44:32.001Z,4.56
2023-02-06T09:47:17.613Z,4.73
2023-02-06T09:49:54.823Z,3.97
2023-02-06T09:52:51.481Z,4.44
2023-02-06T09:55:44.415Z,4.52
2023-02-06T09:58:32.872Z,3.93
2023-02-06T10:01:13.128Z,4.22
2023-02-06T10:03:52.098Z,4.29
2023-02-06T10:06:43.628Z,4.59
2023-02-06T10:09:43.115Z,4.19
2023-02-06T10:12:20.093Z,4.55
2023-02-06T10:15:13.922Z,4.39
2023-02-06T10:17:57.379Z,4.58
2023-02-06T10:20:36.590Z,4.33
2023-02-06T10:23:09.817Z,4.50
2023-02-06T10:25:42.285Z,4.04
2023-02-06T10:28:30.689Z,3.93
2023-02-06T10:31:21.553Z,4.32
2023-02-06T10:34:10.297Z,4.72
2023-02-06T10:36:50.604Z,4.64
2023-02-06T10:39:50.706Z,4.51
2023-02-06T10:42:45.573Z,3.79
2023-02-06T10:45:20.098Z,4.24
2023-02-06T10:48:04.486Z,4.81
2023-02-06T10:50:42.296Z,4.69
2023-02-06T10:53:18.021Z,4.45
2023-02-06T10:55:56.198Z,4.11
2023-02-06T10:58:31.191Z,4.72
2023-02-06T11:01:00.189Z,4.68
2023-02-06T11:03:32.002Z,4.63
2023-02-06T11:06:01.697Z,4.30
2023-02-06T11:08:30.607Z,4.72
2023-02-06T11:10:57.851Z,4.89
2023-02-06T11:13:36.781Z,4.73
2023-02-06T11:16:08.970Z,4.42
2023-02-06T11:18:39.201Z,4.32
2023-02-06T11:21:08.600Z,4.04
2023-02-06T11:23:36.632Z,4.26
2023-02-06T11:26:06.072Z,4.69
2023-02-06T11:28:35.549Z,5.10
2023-02-06T11:31:06.191Z,4.88
2023-02-06T11:33:39.541Z,5.22
2023-02-06T11:36:20.183Z,5.06
2023-02-06T11:38:59.708Z,5.42
2023-02-06T11:41:27.342Z,5.47
2023-02-06T11:44:06.715Z,5.56
2023-02-06T11:46:36.110Z,5.25
2023-02-06T11:49:05.229Z,5.21
2023-02-06T11:51:51.518Z,4.88
2023-02-06T11:54:22.742Z,4.74
2023-02-06T11:57:04.920Z,5.14
2023-02-06T11:59:34.615Z,5.58
2023-02-06T12:02:05.782Z,5.51
2023-02-06T12:04:40.744Z,5.94
2023-02-06T12:07:31.370Z,6.05
2023-02-06T12:09:58.265Z,5.86
2023-02-06T12:12:30.640Z,6.11
2023-02-06T12:15:29.528Z,6.88
2023-02-06T12:18:06.103Z,7.70
2023-02-06T12:20:36.813Z,7.80
2023-02-06T12:23:11.188Z,7.68
2023-02-06T12:25:44.309Z,7.62
2023-02-06T12:28:38.002Z,8.41
2023-02-06T12:31:13.024Z,9.66
2023-02-06T12:33:48.823Z,10.49
2023-02-06T12:36:28.068Z,10.70
2023-02-06T12:39:14.487Z,11.15
2023-02-06T12:42:00.377Z,11.40
2023-02-06T12:44:45.672Z,10.34
2023-02-06T12:47:15.526Z,9.21
2023-02-06T12:50:12.906Z,8.79
2023-02-06T12:52:45.080Z,9.81
2023-02-06T12:55:30.537Z,9.63
2023-02-06T12:57:58.464Z,7.82
2023-02-06T13:00:59.964Z,6.59
2023-02-06T13:03:43.739Z,6.47
2023-02-06T13:06:22.605Z,7.07
2023-02-06T13:08:56.158Z,9.23
2023-02-06T13:11:28.885Z,9.65
2023-02-06T13:14:06.893Z,8.69
2023-02-06T13:16:58.261Z,9.01
2023-02-06T13:19:25.092Z,9.80
2023-02-06T13:22:13.632Z,8.18
2023-02-06T13:24:42.587Z,7.59
2023-02-06T13:27:09.233Z,6.71
2023-02-06T13:29:47.731Z,6.09
2023-02-06T13:32:21.777Z,5.69
2023-02-06T13:35:00.439Z,6.67
2023-02-06T13:37:37.266Z,7.25
2023-02-06T13:40:26.652Z,7.05
2023-02-06T13:43:05.366Z,7.33
2023-02-06T13:46:01.934Z,9.17
2023-02-06T13:48:58.346Z,10.49
2023-02-06T13:51:46.889Z,10.52
2023-02-06T13:54:51.372Z,11.25
2023-02-06T13:57:31.723Z,11.64
2023-02-06T14:00:10.783Z,10.93
2023-02-06T14:02:40.795Z,9.37
2023-02-06T14:05:16.529Z,8.23
2023-02-06T14:08:38.020Z,7.31
2023-02-06T14:11:14.550Z,6.23
2023-02-06T14:14:01.068Z,5.19
2023-02-06T14:16:50.489Z,5.07
2023-02-06T14:19:41.841Z,4.90
2023-02-06T14:22:29.066Z,5.06
2023-02-06T14:25:17.672Z,4.99
2023-02-06T14:28:09.053Z,5.03
2023-02-06T14:30:46.258Z,4.97
2023-02-06T14:33:40.909Z,5.18
2023-02-06T14:36:36.842Z,5.26
2023-02-06T14:39:48.008Z,5.22
2023-02-06T14:42:20.725Z,4.62
2023-02-06T14:45:06.963Z,4.82
2023-02-06T14:47:42.243Z,4.37
2023-02-06T14:50:21.772Z,4.14
2023-02-06T14:52:53.027Z,4.25
2023-02-06T14:55:34.294Z,4.44
2023-02-06T14:58:01.594Z,4.45
2023-02-06T15:00:29.020Z,4.53
2023-02-06T15:03:04.647Z,3.98
2023-02-06T15:05:32.004Z,3.99
2023-02-06T15:08:02.043Z,4.17
2023-02-06T15:10:37.092Z,4.09
2023-02-06T15:13:04.646Z,4.37
2023-02-06T15:15:33.871Z,3.96
2023-02-06T15:18:06.513Z,4.06
2023-02-06T15:20:37.555Z,3.97
2023-02-06T15:23:16.937Z,4.03
2023-02-06T15:25:57.008Z,3.90
2023-02-06T15:28:28.938Z,4.11
2023-02-06T15:30:57.620Z,3.86
2023-02-06T15:33:28.293Z,3.82
2023-02-06T15:35:57.401Z,3.69
2023-02-06T15:38:27.207Z,3.55
2023-02-06T15:40:58.497Z,3.53
2023-02-06T15:43:27.138Z,3.23
2023-02-06T15:45:57.049Z,3.33
2023-02-06T15:48:45.042Z,3.39
2023-02-06T15:51:20.769Z,3.55
2023-02-06T15:53:50.699Z,3.35
2023-02-06T15:56:30.474Z,3.43
2023-02-06T15:59:03.724Z,3.53
2023-02-06T16:01:35.007Z,3.61
2023-02-06T16:04:08.796Z,3.50
2023-02-06T16:06:36.311Z,3.52
2023-02-06T16:09:07.282Z,3.51
2023-02-06T16:11:47.539Z,3.63
2023-02-06T16:14:37.255Z,3.62
2023-02-06T16:17:22.300Z,3.24
2023-02-06T16:19:59.146Z,3.26
2023-02-06T16:22:33.313Z,3.13
2023-02-06T16:25:23.221Z,2.87
2023-02-06T16:27:55.913Z,3.01
2023-02-06T16:30:37.316Z,2.70
2023-02-06T16:33:25.926Z,2.34
2023-02-06T16:35:52.845Z,2.50
2023-02-06T16:38:20.541Z,2.57
2023-02-06T16:40:50.467Z,2.71
2023-02-06T16:43:17.289Z,2.82
2023-02-06T16:45:44.113Z,3.02
2023-02-06T16:48:17.317Z,3.13
2023-02-06T16:50:46.857Z,3.36
2023-02-06T16:53:25.687Z,3.02
2023-02-06T16:55:52.700Z,3.03
2023-02-06T16:58:22.788Z,3.01
2023-02-06T17:00:49.678Z,3.17
2023-02-06T17:03:17.796Z,3.29
2023-02-06T17:05:46.662Z,3.23
2023-02-06T17:08:24.651Z,3.34
2023-02-06T17:10:52.232Z,3.28
2023-02-06T17:13:22.199Z,3.32
2023-02-06T17:15:52.197Z,3.39
2023-02-06T17:18:20.536Z,3.37
2023-02-06T17:20:51.616Z,3.18
2023-02-06T17:23:19.211Z,3.13
2023-02-06T17:25:47.345Z,3.20
2023-02-06T17:28:21.350Z,3.16
2023-02-06T17:30:50.906Z,3.22
2023-02-06T17:33:18.065Z,3.15
2023-02-06T17:35:46.503Z,3.25
2023-02-06T17:38:13.365Z,3.17
2023-02-06T17:40:41.325Z,3.23
2023-02-06T17:43:09.738Z,2.97
2023-02-06T17:45:39.243Z,3.10
2023-02-06T17:48:06.562Z,3.33
2023-02-06T17:50:36.121Z,3.36
2023-02-06T17:53:07.135Z,3.12
2023-02-06T17:55:35.312Z,3.12
2023-02-06T17:58:02.776Z,3.36
2023-02-06T18:00:30.135Z,3.11
2023-02-06T18:02:59.303Z,3.29
2023-02-06T18:05:26.903Z,2.91
2023-02-06T18:07:53.969Z,3.17
2023-02-06T18:10:22.654Z,3.24
2023-02-06T18:12:50.028Z,2.93
2023-02-06T18:15:17.602Z,3.21
2023-02-06T18:17:44.564Z,3.26
2023-02-06T18:20:12.656Z,3.29
2023-02-06T18:22:42.438Z,3.16
2023-02-06T18:25:12.132Z,3.35
2023-02-06T18:27:40.199Z,3.04
2023-02-06T18:30:08.138Z,3.11
2023-02-06T18:32:37.572Z,3.14
2023-02-06T18:35:05.212Z,3.01
2023-02-06T18:37:32.066Z,3.15
2023-02-06T18:39:58.931Z,2.76
2023-02-06T18:42:44.341Z,2.99
2023-02-06T18:45:11.132Z,2.62
2023-02-06T18:47:39.130Z,2.47
2023-02-06T18:50:06.136Z,2.54
2023-02-06T18:52:32.945Z,2.35
2023-02-06T18:55:00.003Z,2.34
2023-02-06T18:57:26.694Z,2.66
2023-02-06T18:59:53.509Z,2.65
2023-02-06T19:02:20.484Z,2.78
2023-02-06T19:04:47.204Z,2.67
2023-02-06T19:07:15.433Z,2.59
2023-02-06T19:09:42.824Z,2.67
2023-02-06T19:12:09.697Z,2.87
2023-02-06T19:14:36.593Z,2.88
2023-02-06T19:17:03.472Z,2.99
2023-02-06T19:19:30.516Z,3.04
2023-02-06T19:21:57.829Z,3.05
2023-02-06T19:24:26.288Z,2.90
2023-02-06T19:26:53.085Z,2.86
2023-02-06T19:29:34.355Z,2.62
2023-02-06T19:32:03.622Z,2.76
2023-02-06T19:34:30.532Z,2.96
2023-02-06T19:36:57.447Z,2.71
2023-02-06T19:39:24.749Z,2.81
2023-02-06T19:41:51.635Z,2.53
2023-02-06T19:44:18.448Z,2.83
2023-02-06T19:46:45.477Z,2.76
2023-02-06T19:49:12.529Z,3.06
2023-02-06T19:51:41.607Z,2.91
2023-02-06T19:54:08.645Z,2.90
2023-02-06T19:56:39.580Z,2.84
2023-02-06T19:59:17.921Z,3.33
2023-02-06T20:02:14.525Z,3.25
2023-02-06T20:04:41.594Z,2.82
2023-02-06T20:07:08.452Z,2.89
2023-02-06T20:09:36.574Z,3.12
2023-02-06T20:12:03.707Z,2.89
2023-02-06T20:14:30.523Z,3.18
2023-02-06T20:16:57.509Z,2.89
2023-02-06T20:19:26.985Z,2.57
2023-02-06T20:21:58.052Z,2.98
2023-02-06T20:24:27.946Z,3.00
2023-02-06T20:26:57.787Z,2.99
2023-02-06T20:29:29.163Z,3.08
2023-02-06T20:31:57.002Z,3.09
2023-02-06T20:34:24.895Z,3.08
2023-02-06T20:36:51.974Z,3.10
2023-02-06T20:39:19.646Z,3.31
2023-02-06T20:41:49.434Z,3.29
2023-02-06T20:44:17.346Z,3.23
2023-02-06T20:46:44.482Z,3.22
2023-02-06T20:49:23.163Z,3.15
2023-02-06T20:51:51.136Z,3.12
2023-02-06T20:54:19.583Z,3.18
2023-02-06T20:56:46.994Z,3.24
2023-02-06T20:59:16.013Z,3.16
2023-02-06T21:01:43.240Z,3.17
2023-02-06T21:04:12.616Z,3.30
2023-02-06T21:06:39.862Z,3.14
2023-02-06T21:09:08.394Z,3.15
2023-02-06T21:11:39.238Z,3.19
2023-02-06T21:14:06.698Z,2.96
2023-02-06T21:16:35.744Z,2.58
2023-02-06T21:19:04.725Z,2.73
2023-02-06T21:21:31.731Z,2.93
2023-02-06T21:23:58.894Z,3.15
2023-02-06T21:26:27.395Z,3.05
2023-02-06T21:28:55.018Z,3.06
2023-02-06T21:31:25.139Z,3.15
2023-02-06T21:33:52.484Z,3.04
2023-02-06T21:36:21.154Z,2.77
2023-02-06T21:38:48.205Z,2.72
2023-02-06T21:41:18.225Z,2.78
2023-02-06T21:43:45.827Z,2.92
2023-02-06T21:46:13.268Z,2.95
2023-02-06T21:48:41.360Z,2.88
2023-02-06T21:51:13.445Z,3.00
2023-02-06T21:53:40.569Z,2.90
2023-02-06T21:56:09.878Z,3.01
2023-02-06T21:58:37.050Z,2.88
2023-02-06T22:01:08.840Z,3.00
2023-02-06T22:03:36.056Z,2.78
2023-02-06T22:06:09.350Z,3.03
2023-02-06T22:08:36.867Z,2.75
2023-02-06T22:11:24.201Z,2.81
2023-02-06T22:13:51.858Z,2.89
2023-02-06T22:16:21.754Z,3.13
2023-02-06T22:18:49.398Z,3.10
2023-02-06T22:21:19.160Z,3.07
2023-02-06T22:23:47.499Z,2.72
2023-02-06T22:26:15.976Z,2.76
2023-02-06T22:28:43.903Z,3.05
2023-02-06T22:31:14.278Z,2.63
2023-02-06T22:33:41.631Z,2.70
2023-02-06T22:36:11.788Z,3.08
2023-02-06T22:38:39.545Z,3.05
2023-02-06T22:41:10.691Z,3.07
2023-02-06T22:43:38.822Z,2.93
2023-02-06T22:46:07.011Z,2.90
2023-02-06T22:48:34.134Z,3.10
2023-02-06T22:51:09.015Z,3.21
2023-02-06T22:53:38.468Z,3.17
2023-02-06T22:56:27.123Z,3.34
2023-02-06T22:59:01.772Z,3.00
2023-02-06T23:01:59.494Z,3.00
2023-02-06T23:04:30.241Z,3.25
2023-02-06T23:06:57.639Z,3.03
2023-02-06T23:09:26.931Z,3.23
2023-02-06T23:11:54.928Z,2.99
2023-02-06T23:14:21.822Z,3.04
2023-02-06T23:16:49.045Z,3.03
2023-02-06T23:19:17.009Z,3.17
2023-02-06T23:21:45.703Z,2.96
2023-02-06T23:24:13.278Z,2.84
2023-02-06T23:26:45.218Z,2.56
2023-02-06T23:29:17.803Z,2.99
2023-02-06T23:31:45.981Z,3.14
2023-02-06T23:34:13.820Z,3.17
2023-02-06T23:36:41.024Z,2.98
2023-02-06T23:39:07.750Z,3.07
2023-02-06T23:41:35.007Z,3.22
2023-02-06T23:44:04.632Z,3.19
2023-02-06T23:46:34.538Z,3.17
2023-02-06T23:49:01.292Z,3.31
2023-02-06T23:51:28.360Z,3.05
2023-02-06T23:53:55.127Z,3.06
2023-02-06T23:56:32.270Z,2.88
2023-02-06T23:59:00.631Z,3.04
